Time;durP1;ratioP1;P1;durP2;ratioP2;P2;SDS_P1;SDS_P2;PMS_P1;PMS_P2;Temp;Humidity;BMP_temperature;BMP_pressure;BME280_temperature;BME280_humidity;BME280_pressure;Samples;Min_cycle;Max_cycle;Signal;HPM_P1;HPM_P2
2023/06/14 00:01:31;;;;;;;7.85;5.30;;;24.70;63.10;;;;;;5063255;28;20199;-39
2023/06/14 00:04:02;;;;;;;5.55;5.00;;;24.70;63.30;;;;;;5063623;28;20256;-39
2023/06/14 00:06:29;;;;;;;5.72;5.05;;;24.60;63.30;;;;;;5094478;28;20204;-39
2023/06/14 00:08:56;;;;;;;6.07;5.15;;;24.50;63.40;;;;;;5063083;28;20200;-39
2023/06/14 00:11:23;;;;;;;7.20;5.25;;;24.50;63.40;;;;;;5094981;28;20281;-39
2023/06/14 00:13:51;;;;;;;8.13;5.70;;;24.40;63.40;;;;;;5093834;28;20777;-39
2023/06/14 00:16:19;;;;;;;6.55;5.50;;;24.30;63.50;;;;;;5060446;28;20210;-40
2023/06/14 00:18:46;;;;;;;6.15;5.15;;;24.30;63.70;;;;;;5094918;28;20200;-38
2023/06/14 00:21:16;;;;;;;6.57;5.03;;;24.30;63.80;;;;;;5061111;28;20459;-38
2023/06/14 00:23:45;;;;;;;6.38;5.78;;;24.20;63.70;;;;;;5062432;28;20269;-39
2023/06/14 00:26:17;;;;;;;6.00;5.40;;;24.10;63.50;;;;;;5062131;28;20206;-38
2023/06/14 00:28:47;;;;;;;7.50;5.80;;;24.10;63.70;;;;;;5062868;28;20257;-39
2023/06/14 00:31:16;;;;;;;6.80;6.10;;;24.10;63.60;;;;;;5061355;28;20644;-39
2023/06/14 00:33:46;;;;;;;6.55;5.40;;;24.00;63.80;;;;;;5063431;28;20211;-39
2023/06/14 00:36:13;;;;;;;6.82;5.50;;;23.90;63.90;;;;;;5063129;28;20623;-39
2023/06/14 00:38:40;;;;;;;9.57;5.53;;;23.90;63.80;;;;;;5062505;28;20345;-39
2023/06/14 00:41:08;;;;;;;9.50;5.93;;;23.90;64.00;;;;;;5062501;28;20314;-39
2023/06/14 00:43:37;;;;;;;9.00;6.47;;;23.90;64.00;;;;;;5062878;28;20210;-40
2023/06/14 00:46:07;;;;;;;6.68;5.97;;;23.80;63.80;;;;;;5093788;28;20576;-39
2023/06/14 00:48:38;;;;;;;7.65;6.00;;;23.80;63.90;;;;;;5095004;28;20752;-39
2023/06/14 00:51:08;;;;;;;8.00;5.80;;;23.80;63.90;;;;;;5062419;28;20302;-39
2023/06/14 00:53:36;;;;;;;7.10;6.10;;;23.70;63.90;;;;;;5063023;28;20203;-39
2023/06/14 00:56:03;;;;;;;7.15;5.80;;;23.60;63.70;;;;;;5062401;28;20273;-39
2023/06/14 00:58:33;;;;;;;5.90;5.30;;;23.60;64.00;;;;;;5060788;28;20209;-32
2023/06/14 01:01:02;;;;;;;6.65;6.05;;;23.60;63.90;;;;;;5044039;28;20243;-32
2023/06/14 01:03:37;;;;;;;6.43;5.80;;;23.50;64.00;;;;;;5062375;28;20698;-32
2023/06/14 01:06:44;;;;;;;6.28;5.60;;;23.50;64.20;;;;;;5061882;28;20849;-31
2023/06/14 01:09:26;;;;;;;6.85;5.70;;;23.50;64.70;;;;;;5061552;28;20740;-31
2023/06/14 01:12:11;;;;;;;7.50;5.88;;;23.50;64.40;;;;;;5054358;28;20632;-32
2023/06/14 01:14:41;;;;;;;6.72;5.60;;;23.40;64.50;;;;;;5058051;28;20191;-32
2023/06/14 01:17:16;;;;;;;6.22;5.45;;;23.40;64.20;;;;;;5093736;28;20669;-31
2023/06/14 01:19:45;;;;;;;5.70;5.20;;;23.40;64.10;;;;;;5060950;28;20215;-32
2023/06/14 01:22:17;;;;;;;7.07;5.75;;;23.30;64.30;;;;;;5059913;28;20235;-32
2023/06/14 01:24:46;;;;;;;9.27;6.00;;;23.30;64.30;;;;;;5059964;28;20203;-32
2023/06/14 01:27:18;;;;;;;6.78;5.53;;;23.30;64.40;;;;;;5048117;28;20273;-31
2023/06/14 01:29:46;;;;;;;6.82;5.80;;;23.20;64.50;;;;;;5092027;28;20282;-31
2023/06/14 01:32:15;;;;;;;8.02;5.53;;;23.20;65.10;;;;;;5047724;28;20223;-39
2023/06/14 01:34:47;;;;;;;10.05;5.65;;;23.10;65.10;;;;;;5060574;28;20215;-39
2023/06/14 01:37:21;;;;;;;7.05;5.88;;;23.10;65.10;;;;;;5092078;28;20203;-39
2023/06/14 01:39:50;;;;;;;7.22;5.53;;;23.00;64.90;;;;;;5061934;28;20257;-39
2023/06/14 01:42:18;;;;;;;6.57;5.50;;;23.00;64.90;;;;;;5061217;28;20257;-39
2023/06/14 01:44:46;;;;;;;6.28;5.68;;;23.00;65.00;;;;;;5092789;28;20666;-39
2023/06/14 01:47:16;;;;;;;8.60;6.45;;;22.90;64.90;;;;;;5062084;28;20229;-39
2023/06/14 01:49:48;;;;;;;7.93;5.80;;;22.90;65.60;;;;;;5060989;28;20219;-32
2023/06/14 01:52:19;;;;;;;6.65;5.95;;;22.80;65.20;;;;;;5061773;28;20207;-32
2023/06/14 01:54:51;;;;;;;7.85;5.68;;;22.70;65.30;;;;;;5039545;28;20208;-32
2023/06/14 01:57:20;;;;;;;8.18;6.00;;;22.80;65.20;;;;;;5058351;28;20212;-32
2023/06/14 01:59:54;;;;;;;6.82;6.10;;;22.70;65.10;;;;;;5061979;28;20704;-32
2023/06/14 02:02:22;;;;;;;6.93;6.22;;;22.70;65.10;;;;;;5059617;28;20199;-32
2023/06/14 02:04:49;;;;;;;6.65;6.05;;;22.70;65.20;;;;;;5060252;28;20677;-32
2023/06/14 02:07:18;;;;;;;8.05;6.30;;;22.70;65.30;;;;;;5059120;28;20216;-32
2023/06/14 02:09:50;;;;;;;7.00;6.30;;;22.70;65.20;;;;;;5059135;28;20214;-32
2023/06/14 02:12:17;;;;;;;6.78;6.03;;;22.60;65.30;;;;;;5060332;28;20298;-32
2023/06/14 02:14:45;;;;;;;7.78;6.18;;;22.60;65.30;;;;;;5093435;28;20299;-32
2023/06/14 02:17:14;;;;;;;6.53;5.93;;;22.60;65.80;;;;;;5091672;28;20627;-32
2023/06/14 02:19:42;;;;;;;9.43;6.10;;;22.60;65.60;;;;;;5060196;28;20227;-32
2023/06/14 02:22:14;;;;;;;8.60;6.18;;;22.50;65.70;;;;;;5060009;28;20235;-32
2023/06/14 02:24:42;;;;;;;9.00;6.30;;;22.50;65.90;;;;;;5060430;28;20215;-32
2023/06/14 02:27:12;;;;;;;9.63;6.70;;;22.50;65.80;;;;;;5060002;28;20243;-39
2023/06/14 02:29:42;;;;;;;7.68;6.03;;;22.40;66.00;;;;;;5093003;28;20208;-39
2023/06/14 02:32:13;;;;;;;8.13;5.57;;;22.40;66.00;;;;;;5075258;28;20222;-39
2023/06/14 02:34:44;;;;;;;7.82;5.70;;;22.30;65.80;;;;;;5060857;28;20215;-39
2023/06/14 02:37:12;;;;;;;7.00;6.30;;;22.30;65.90;;;;;;5089994;28;20195;-39
2023/06/14 02:39:42;;;;;;;8.93;6.35;;;22.30;66.00;;;;;;5090807;28;20253;-40
2023/06/14 02:42:14;;;;;;;6.88;5.90;;;22.20;65.60;;;;;;5061158;28;20532;-32
2023/06/14 02:44:45;;;;;;;6.97;6.28;;;22.20;65.80;;;;;;5059766;28;20220;-32
2023/06/14 02:47:12;;;;;;;7.88;6.72;;;22.20;65.90;;;;;;5063962;28;20203;-32
2023/06/14 02:49:39;;;;;;;7.05;6.32;;;22.20;66.10;;;;;;5064815;28;20195;-33
2023/06/14 02:52:11;;;;;;;7.43;6.72;;;22.20;66.00;;;;;;5065122;28;20220;-32
2023/06/14 02:54:38;;;;;;;7.93;6.15;;;22.20;66.30;;;;;;5064942;28;20713;-32
2023/06/14 02:57:06;;;;;;;8.05;6.60;;;22.20;66.20;;;;;;5064661;28;20212;-32
2023/06/14 02:59:35;;;;;;;7.63;6.90;;;22.10;66.20;;;;;;5064700;28;20295;-32
2023/06/14 03:02:04;;;;;;;8.85;6.30;;;22.10;66.10;;;;;;5060433;28;20338;-33
2023/06/14 03:04:37;;;;;;;7.55;6.43;;;22.10;66.30;;;;;;5062401;28;20207;-32
2023/06/14 03:07:08;;;;;;;7.38;6.53;;;22.00;66.10;;;;;;5095720;28;20217;-32
2023/06/14 03:09:39;;;;;;;8.38;6.40;;;22.00;66.30;;;;;;5095870;28;20196;-32
2023/06/14 03:12:07;;;;;;;7.50;6.70;;;22.00;66.30;;;;;;5063071;28;20881;-32
2023/06/14 03:14:34;;;;;;;7.47;6.72;;;22.00;66.60;;;;;;5064553;28;20681;-31
2023/06/14 03:17:04;;;;;;;7.32;6.63;;;21.90;66.80;;;;;;5095903;28;20249;-32
2023/06/14 03:19:32;;;;;;;7.72;7.03;;;21.90;66.60;;;;;;5096262;28;20211;-32
2023/06/14 03:22:02;;;;;;;7.45;6.75;;;21.80;66.50;;;;;;5095524;28;20570;-31
2023/06/14 03:24:36;;;;;;;7.28;6.60;;;21.90;66.70;;;;;;5065181;28;20623;-31
2023/06/14 03:27:06;;;;;;;7.72;6.95;;;21.80;66.60;;;;;;5064114;28;20226;-32
2023/06/14 03:29:34;;;;;;;8.98;7.07;;;21.80;66.70;;;;;;5095963;28;20215;-31
2023/06/14 03:32:03;;;;;;;10.15;7.47;;;21.70;66.70;;;;;;5063631;28;20203;-31
2023/06/14 03:34:31;;;;;;;7.43;6.68;;;21.70;67.00;;;;;;5064204;28;20227;-31
2023/06/14 03:37:03;;;;;;;9.32;7.32;;;21.80;67.00;;;;;;5064885;28;20277;-32
2023/06/14 03:39:32;;;;;;;8.95;7.68;;;21.70;67.00;;;;;;5051931;28;20990;-32
2023/06/14 03:42:05;;;;;;;7.82;6.85;;;21.60;66.90;;;;;;5064027;28;20583;-32
2023/06/14 03:44:32;;;;;;;7.47;6.78;;;21.60;67.20;;;;;;5064101;28;20203;-32
2023/06/14 03:47:02;;;;;;;7.82;6.47;;;21.60;67.00;;;;;;5093446;28;20195;-32
2023/06/14 03:49:29;;;;;;;9.52;6.88;;;21.60;67.20;;;;;;5094552;28;20395;-31
2023/06/14 03:52:02;;;;;;;7.97;7.18;;;21.60;67.20;;;;;;5062353;28;20329;-31
2023/06/14 03:54:32;;;;;;;9.13;7.10;;;21.60;67.40;;;;;;5062561;28;20294;-31
2023/06/14 03:57:05;;;;;;;7.68;6.85;;;21.50;67.20;;;;;;5057948;28;20861;-31
2023/06/14 03:59:35;;;;;;;7.70;6.88;;;21.50;67.40;;;;;;5095469;28;20710;-32
2023/06/14 04:02:05;;;;;;;7.75;7.00;;;21.50;67.40;;;;;;5063894;28;20765;-32
2023/06/14 04:04:32;;;;;;;7.63;6.45;;;21.50;67.30;;;;;;5061170;28;20661;-31
2023/06/14 04:07:03;;;;;;;7.85;7.13;;;21.50;67.60;;;;;;5064364;28;20230;-31
2023/06/14 04:09:32;;;;;;;7.13;6.47;;;21.50;67.70;;;;;;5095000;28;20568;-31
2023/06/14 04:12:02;;;;;;;7.65;6.80;;;21.50;67.80;;;;;;5063014;28;20215;-31
2023/06/14 04:14:34;;;;;;;7.93;6.53;;;21.50;67.70;;;;;;5063199;28;20215;-31
2023/06/14 04:17:03;;;;;;;7.47;6.72;;;21.50;67.90;;;;;;5095476;28;20241;-38
2023/06/14 04:19:32;;;;;;;9.70;7.53;;;21.50;67.80;;;;;;5063118;28;20218;-38
2023/06/14 04:22:01;;;;;;;8.68;7.25;;;21.50;67.80;;;;;;5062849;28;20716;-39
2023/06/14 04:24:38;;;;;;;10.35;7.03;;;21.50;67.70;;;;;;5063021;28;20219;-38
2023/06/14 04:27:07;;;;;;;8.20;7.18;;;21.50;67.80;;;;;;5063399;28;20199;-40
2023/06/14 04:29:35;;;;;;;13.40;7.60;;;21.50;67.90;;;;;;5094049;28;20302;-39
2023/06/14 04:32:04;;;;;;;7.68;6.65;;;21.40;67.90;;;;;;5063019;28;20211;-38
2023/06/14 04:34:33;;;;;;;7.35;6.55;;;21.40;67.80;;;;;;5060106;28;20322;-39
2023/06/14 04:37:07;;;;;;;9.45;6.72;;;21.40;67.90;;;;;;5093858;28;20224;-39
2023/06/14 04:39:37;;;;;;;9.35;7.07;;;21.40;68.00;;;;;;5077099;28;20432;-38
2023/06/14 04:42:04;;;;;;;7.75;6.95;;;21.50;68.10;;;;;;5061277;28;20254;-38
2023/06/14 04:44:31;;;;;;;8.43;7.25;;;21.40;68.10;;;;;;5093708;28;20215;-38
2023/06/14 04:47:01;;;;;;;10.80;7.40;;;21.50;68.50;;;;;;5062903;28;20235;-38
2023/06/14 04:49:32;;;;;;;7.55;6.70;;;21.40;68.40;;;;;;5043974;28;20634;-38
2023/06/14 04:52:04;;;;;;;10.07;7.00;;;21.50;68.40;;;;;;5057590;28;20714;-38
2023/06/14 04:54:36;;;;;;;9.98;6.80;;;21.50;68.30;;;;;;5091547;28;20281;-38
2023/06/14 04:57:13;;;;;;;8.10;7.00;;;21.50;68.40;;;;;;5059722;28;20203;-38
2023/06/14 04:59:41;;;;;;;9.13;7.10;;;21.50;68.50;;;;;;5060464;28;20600;-38
2023/06/14 05:02:08;;;;;;;8.40;7.00;;;21.50;68.70;;;;;;5060264;28;20230;-39
2023/06/14 05:04:39;;;;;;;9.13;6.90;;;21.50;68.70;;;;;;5058913;28;20661;-39
2023/06/14 05:07:08;;;;;;;9.63;7.22;;;21.60;68.80;;;;;;5057804;28;20195;-39
2023/06/14 05:09:36;;;;;;;9.70;7.45;;;21.60;68.90;;;;;;5053974;28;20223;-39
2023/06/14 05:12:07;;;;;;;9.45;7.47;;;21.60;68.80;;;;;;5059129;28;20207;-40
2023/06/14 05:14:37;;;;;;;10.55;7.07;;;21.60;69.20;;;;;;5060706;28;20231;-39
2023/06/14 05:17:07;;;;;;;10.77;7.80;;;21.70;69.10;;;;;;5060557;28;20223;-39
2023/06/14 05:19:37;;;;;;;7.93;7.13;;;21.70;69.30;;;;;;5040716;28;20772;-38
2023/06/14 05:22:05;;;;;;;7.72;6.57;;;21.70;68.90;;;;;;5056787;28;20236;-38
2023/06/14 05:24:34;;;;;;;9.25;7.53;;;21.80;69.00;;;;;;5061862;28;20211;-38
2023/06/14 05:27:06;;;;;;;10.52;7.80;;;21.80;69.20;;;;;;5061480;28;20199;-38
2023/06/14 05:29:34;;;;;;;11.05;7.82;;;21.80;69.10;;;;;;5059341;28;20214;-38
2023/06/14 05:32:03;;;;;;;8.18;7.28;;;21.80;70.00;;;;;;5061152;28;20258;-38
2023/06/14 05:34:33;;;;;;;8.27;7.45;;;21.90;69.20;;;;;;5061384;28;20676;-38
2023/06/14 05:37:00;;;;;;;9.38;7.10;;;21.90;69.20;;;;;;5061280;28;20216;-38
2023/06/14 05:39:27;;;;;;;12.32;8.13;;;21.90;69.20;;;;;;5058576;28;20242;-38
2023/06/14 05:41:55;;;;;;;10.43;7.93;;;22.00;69.30;;;;;;5061007;28;20231;-38
2023/06/14 05:44:22;;;;;;;12.68;7.50;;;22.00;69.40;;;;;;5058356;28;20227;-38
2023/06/14 05:46:49;;;;;;;11.65;7.50;;;22.00;69.70;;;;;;5057104;28;20219;-39
2023/06/14 05:49:17;;;;;;;11.20;7.03;;;22.10;69.50;;;;;;5068106;28;20213;-38
2023/06/14 05:51:44;;;;;;;9.52;7.47;;;22.10;69.60;;;;;;5044269;28;20229;-38
2023/06/14 05:54:12;;;;;;;10.13;6.90;;;22.20;69.70;;;;;;5060828;28;20688;-39
2023/06/14 05:56:41;;;;;;;9.90;7.13;;;22.20;69.60;;;;;;5060967;28;20300;-38
2023/06/14 05:59:08;;;;;;;11.73;7.45;;;22.30;69.70;;;;;;5060515;28;20261;-38
2023/06/14 06:01:39;;;;;;;8.88;6.80;;;22.40;70.60;;;;;;5059325;28;20281;-39
2023/06/14 06:04:16;;;;;;;11.15;7.47;;;22.40;70.00;;;;;;5061092;28;20199;-39
2023/06/14 06:06:49;;;;;;;12.60;7.53;;;22.50;70.00;;;;;;5092605;28;20494;-32
2023/06/14 06:09:20;;;;;;;11.32;7.28;;;22.50;70.10;;;;;;5058756;28;20479;-32
2023/06/14 06:11:48;;;;;;;13.45;7.75;;;22.60;70.20;;;;;;5064509;28;20562;-31
2023/06/14 06:14:20;;;;;;;11.63;7.00;;;22.60;70.20;;;;;;5059494;28;20192;-32
2023/06/14 06:16:52;;;;;;;12.45;7.55;;;22.60;70.40;;;;;;5060131;28;20235;-32
2023/06/14 06:19:22;;;;;;;11.88;6.88;;;22.70;70.60;;;;;;5058600;28;20203;-32
2023/06/14 06:21:49;;;;;;;8.13;6.30;;;22.70;70.50;;;;;;5044242;28;20259;-32
2023/06/14 06:24:16;;;;;;;10.48;6.68;;;22.80;71.30;;;;;;5057652;28;20208;-32
2023/06/14 06:26:44;;;;;;;7.88;7.00;;;22.80;70.80;;;;;;5064089;28;20272;-32
2023/06/14 06:29:11;;;;;;;8.68;6.80;;;22.90;70.70;;;;;;5064018;28;20572;-32
2023/06/14 06:31:38;;;;;;;8.40;5.80;;;22.90;71.00;;;;;;5065396;28;20881;-32
2023/06/14 06:34:05;;;;;;;11.48;6.50;;;23.00;70.80;;;;;;5054081;28;20204;-32
2023/06/14 06:36:35;;;;;;;8.57;6.63;;;23.00;71.00;;;;;;5061105;28;20249;-32
2023/06/14 06:39:09;;;;;;;8.48;6.35;;;23.10;71.10;;;;;;5088904;28;20219;-32
2023/06/14 06:41:40;;;;;;;11.55;6.32;;;23.20;71.10;;;;;;5060811;28;20231;-32
2023/06/14 06:44:07;;;;;;;9.10;6.30;;;23.20;71.10;;;;;;5058640;28;20215;-32
2023/06/14 06:46:35;;;;;;;7.45;6.60;;;23.30;71.20;;;;;;5064681;28;20670;-32
2023/06/14 06:49:07;;;;;;;9.02;7.35;;;23.40;71.40;;;;;;5056763;28;20207;-30
2023/06/14 06:51:41;;;;;;;9.05;6.30;;;23.40;71.90;;;;;;5058246;28;20597;-32
2023/06/14 06:54:11;;;;;;;9.13;6.25;;;23.50;71.40;;;;;;5043892;28;20230;-33
2023/06/14 06:56:39;;;;;;;9.38;7.00;;;23.50;71.40;;;;;;5061687;28;20696;-33
2023/06/14 06:59:08;;;;;;;8.32;6.30;;;23.60;72.00;;;;;;5094879;28;20207;-35
2023/06/14 07:01:38;;;;;;;9.52;6.40;;;23.60;71.60;;;;;;5059294;28;20272;-35
2023/06/14 07:04:06;;;;;;;7.70;6.88;;;23.60;71.90;;;;;;5058795;28;20289;-35
2023/06/14 07:06:35;;;;;;;11.90;6.50;;;23.60;72.00;;;;;;5062269;28;20210;-35
2023/06/14 07:09:04;;;;;;;8.15;6.55;;;23.70;71.80;;;;;;5058048;28;20216;-35
2023/06/14 07:11:32;;;;;;;7.93;6.80;;;23.70;71.80;;;;;;5062697;28;20917;-35
2023/06/14 07:13:59;;;;;;;8.75;6.30;;;23.80;72.10;;;;;;5064290;28;20279;-35
2023/06/14 07:16:29;;;;;;;7.70;5.90;;;23.80;71.80;;;;;;5064234;28;20204;-35
2023/06/14 07:19:02;;;;;;;8.93;6.65;;;23.80;71.90;;;;;;5063602;28;20200;-35
2023/06/14 07:21:29;;;;;;;7.53;6.45;;;23.90;72.20;;;;;;5064404;28;20231;-35
2023/06/14 07:24:01;;;;;;;8.65;6.10;;;23.90;72.60;;;;;;5061805;28;20225;-35
2023/06/14 07:26:31;;;;;;;7.88;6.13;;;23.90;72.20;;;;;;5063745;28;20619;-35
2023/06/14 07:29:01;;;;;;;8.63;7.10;;;24.00;72.20;;;;;;5078162;28;20200;-35
2023/06/14 07:31:31;;;;;;;6.63;5.97;;;24.00;72.40;;;;;;5053796;28;20214;-35
2023/06/14 07:34:00;;;;;;;8.88;6.50;;;24.00;72.20;;;;;;5062996;28;20351;-35
2023/06/14 07:36:28;;;;;;;8.52;6.35;;;24.10;72.20;;;;;;5063704;28;20749;-35
2023/06/14 07:38:55;;;;;;;8.23;6.32;;;24.10;72.30;;;;;;5063218;28;20215;-35
2023/06/14 07:41:27;;;;;;;13.75;6.97;;;24.20;72.40;;;;;;5064539;28;20219;-35
2023/06/14 07:43:56;;;;;;;8.35;6.20;;;24.20;72.70;;;;;;5061259;28;20319;-35
2023/06/14 07:46:24;;;;;;;8.18;6.43;;;24.20;72.60;;;;;;5060727;28;20193;-35
2023/06/14 07:48:53;;;;;;;7.28;5.70;;;24.30;72.70;;;;;;5058766;28;20227;-34
2023/06/14 07:51:26;;;;;;;8.70;6.28;;;24.30;72.50;;;;;;5055212;28;20211;-35
2023/06/14 07:53:53;;;;;;;6.43;5.82;;;24.40;72.90;;;;;;5093326;28;20624;-34
2023/06/14 07:56:21;;;;;;;7.45;5.82;;;24.40;72.70;;;;;;5057594;28;20207;-34
2023/06/14 07:58:53;;;;;;;6.40;5.80;;;24.40;72.70;;;;;;5093448;28;20209;-33
2023/06/14 08:01:20;;;;;;;9.38;5.85;;;24.50;72.90;;;;;;5060751;28;20742;-35
2023/06/14 08:03:47;;;;;;;7.10;5.97;;;24.60;72.90;;;;;;5072102;28;20199;-34
2023/06/14 08:06:17;;;;;;;7.47;6.00;;;24.70;73.10;;;;;;5062096;28;20257;-35
2023/06/14 08:08:49;;;;;;;6.43;5.80;;;24.70;72.90;;;;;;5062381;28;20215;-35
2023/06/14 08:11:19;;;;;;;8.95;5.82;;;24.70;73.00;;;;;;5061293;28;20214;-36
2023/06/14 08:13:46;;;;;;;6.35;5.70;;;24.80;73.10;;;;;;5057006;28;20937;-36
2023/06/14 08:16:13;;;;;;;7.28;5.85;;;24.80;73.20;;;;;;5061009;28;20203;-35
2023/06/14 08:18:41;;;;;;;7.75;5.75;;;24.90;73.30;;;;;;5091950;28;20747;-35
2023/06/14 08:21:11;;;;;;;6.68;6.00;;;25.00;73.30;;;;;;5060955;28;20243;-33
2023/06/14 08:23:43;;;;;;;7.50;5.93;;;25.00;73.30;;;;;;5063002;28;21025;-35
2023/06/14 08:26:13;;;;;;;9.95;5.57;;;25.10;73.40;;;;;;5060301;28;20211;-36
2023/06/14 08:28:40;;;;;;;9.40;6.53;;;25.10;73.40;;;;;;5074007;28;20207;-36
2023/06/14 08:31:08;;;;;;;6.47;5.78;;;25.20;73.30;;;;;;5058380;28;20287;-36
2023/06/14 08:33:36;;;;;;;7.28;6.03;;;25.20;73.30;;;;;;5057490;28;20223;-35
2023/06/14 08:36:10;;;;;;;6.85;6.05;;;25.30;73.30;;;;;;5059516;28;20212;-33
2023/06/14 08:38:38;;;;;;;6.90;6.20;;;25.30;73.40;;;;;;5055972;28;20643;-36
2023/06/14 08:41:06;;;;;;;6.47;5.63;;;25.30;73.40;;;;;;5057382;28;20226;-36
2023/06/14 08:43:38;;;;;;;8.88;5.68;;;25.40;73.50;;;;;;5072029;28;20207;-35
2023/06/14 08:46:11;;;;;;;7.97;6.10;;;25.40;73.50;;;;;;5057406;28;20215;-36
2023/06/14 08:48:39;;;;;;;10.40;6.03;;;25.50;73.40;;;;;;5055565;28;20195;-36
2023/06/14 08:51:08;;;;;;;13.70;6.70;;;25.50;73.50;;;;;;5060758;28;20772;-36
2023/06/14 08:53:41;;;;;;;12.25;6.70;;;25.50;73.60;;;;;;5059087;28;20332;-39
2023/06/14 08:56:14;;;;;;;10.05;6.38;;;25.60;73.70;;;;;;5056006;28;20896;-35
2023/06/14 08:58:48;;;;;;;8.63;5.65;;;25.70;73.60;;;;;;5052374;28;20619;-35
2023/06/14 09:01:17;;;;;;;9.82;6.38;;;25.70;73.60;;;;;;5055542;28;20355;-35
2023/06/14 09:03:50;;;;;;;7.43;5.38;;;25.70;73.30;;;;;;5060847;28;20195;-35
2023/06/14 09:06:19;;;;;;;8.95;6.03;;;25.70;73.30;;;;;;5060542;28;20209;-35
2023/06/14 09:08:48;;;;;;;7.57;5.47;;;25.80;73.30;;;;;;5055402;28;20196;-35
2023/06/14 09:11:21;;;;;;;6.65;5.88;;;25.80;73.30;;;;;;5059866;28;20215;-35
2023/06/14 09:13:52;;;;;;;8.85;5.82;;;25.90;73.40;;;;;;5053417;28;20199;-35
2023/06/14 09:16:24;;;;;;;8.90;5.50;;;26.00;73.50;;;;;;5059166;28;20583;-35
2023/06/14 09:18:53;;;;;;;8.52;5.72;;;26.00;73.40;;;;;;5059385;28;20192;-35
2023/06/14 09:21:21;;;;;;;7.68;5.60;;;26.00;73.30;;;;;;5056059;28;20626;-34
2023/06/14 09:23:53;;;;;;;10.20;5.57;;;26.10;73.30;;;;;;5055339;28;20696;-35
2023/06/14 09:26:24;;;;;;;9.32;5.47;;;26.10;73.20;;;;;;5059454;28;20632;-34
2023/06/14 09:28:51;;;;;;;7.35;5.55;;;26.10;73.20;;;;;;5041898;28;20214;-34
2023/06/14 09:31:22;;;;;;;8.93;5.55;;;26.20;72.60;;;;;;5057930;28;20822;-34
2023/06/14 09:33:56;;;;;;;8.50;5.15;;;26.20;72.60;;;;;;5058578;28;20227;-34
2023/06/14 09:36:25;;;;;;;8.68;5.40;;;26.20;72.30;;;;;;5059075;28;20223;-34
2023/06/14 09:38:53;;;;;;;10.55;5.55;;;26.20;71.70;;;;;;5092724;28;20230;-34
2023/06/14 09:41:34;;;;;;;8.63;4.93;;;26.20;71.70;;;;;;5058965;28;20660;-34
2023/06/14 09:44:04;;;;;;;5.85;5.10;;;26.20;71.80;;;;;;5056912;28;20253;-35
2023/06/14 09:46:37;;;;;;;6.80;4.90;;;26.20;71.70;;;;;;5060729;28;20317;-34
2023/06/14 09:49:05;;;;;;;9.57;5.07;;;26.20;71.70;;;;;;5061706;28;20204;-34
2023/06/14 09:51:48;;;;;;;5.95;4.88;;;26.20;71.70;;;;;;5089879;28;20211;-35
2023/06/14 09:54:20;;;;;;;6.38;4.65;;;26.20;71.20;;;;;;5057477;28;20308;-34
2023/06/14 09:56:51;;;;;;;6.72;4.90;;;26.30;71.50;;;;;;5062555;28;20199;-34
2023/06/14 09:59:31;;;;;;;6.93;5.05;;;26.30;71.60;;;;;;5065089;28;20245;-34
2023/06/14 10:02:09;;;;;;;5.40;4.40;;;26.30;71.70;;;;;;5040214;28;20726;-35
2023/06/14 10:04:45;;;;;;;8.73;4.88;;;26.40;71.40;;;;;;5057537;28;20207;-35
2023/06/14 10:07:30;;;;;;;4.95;4.45;;;26.40;71.70;;;;;;5061834;28;20205;-34
2023/06/14 10:10:00;;;;;;;6.13;4.70;;;26.50;71.90;;;;;;5065210;28;20222;-35
2023/06/14 10:12:27;;;;;;;7.55;5.13;;;26.50;72.00;;;;;;5063616;28;20654;-35
2023/06/14 10:14:58;;;;;;;6.80;4.90;;;26.60;71.70;;;;;;5058369;28;20360;-35
2023/06/14 10:18:01;;;;;;;6.57;4.97;;;26.70;71.80;;;;;;5089962;28;20344;-35
2023/06/14 10:20:56;;;;;;;7.50;4.50;;;26.70;71.50;;;;;;5059633;28;20624;-35
2023/06/14 10:23:26;;;;;;;6.18;4.18;;;26.70;71.50;;;;;;5035762;28;20232;-35
2023/06/14 10:26:01;;;;;;;5.70;4.88;;;26.80;71.50;;;;;;5038917;28;20216;-35
2023/06/14 10:28:32;;;;;;;5.47;4.60;;;26.80;71.60;;;;;;5039528;28;20212;-38
2023/06/14 10:31:11;;;;;;;7.03;4.80;;;26.80;71.70;;;;;;5036003;28;20291;-36
2023/06/14 10:33:57;;;;;;;9.73;5.43;;;26.90;71.50;;;;;;5025038;28;20213;-35
2023/06/14 10:36:32;;;;;;;5.68;5.00;;;26.90;71.00;;;;;;5030901;28;20204;-35
2023/06/14 10:39:15;;;;;;;6.35;4.63;;;26.90;71.40;;;;;;5039408;28;20226;-36
2023/06/14 10:41:53;;;;;;;6.88;4.50;;;27.00;71.20;;;;;;5040802;28;20226;-36
2023/06/14 10:44:20;;;;;;;6.88;4.47;;;27.00;71.60;;;;;;5037580;28;20412;-36
2023/06/14 10:46:53;;;;;;;5.32;4.20;;;27.10;71.10;;;;;;5035862;28;20274;-36
2023/06/14 10:49:46;;;;;;;6.57;4.22;;;27.10;71.10;;;;;;5042878;28;20674;-36
2023/06/14 10:52:16;;;;;;;5.55;3.88;;;27.10;70.90;;;;;;5030612;28;20201;-35
2023/06/14 10:55:18;;;;;;;7.20;4.15;;;27.10;70.50;;;;;;5042626;28;20208;-35
2023/06/14 10:57:51;;;;;;;4.38;3.88;;;27.20;70.00;;;;;;5034901;28;20243;-35
2023/06/14 11:00:28;;;;;;;7.47;4.15;;;27.20;70.30;;;;;;5036594;28;20204;-35
2023/06/14 11:03:20;;;;;;;;;;;27.20;70.20;;;;;;5041679;28;20045;-36
2023/06/14 11:05:47;;;;;;;;;;;27.10;70.10;;;;;;5043748;28;20050;-36
2023/06/14 11:08:32;;;;;;;;;;;27.10;70.00;;;;;;5039086;28;19925;-35
2023/06/14 11:11:05;;;;;;;;;;;27.10;70.20;;;;;;5038503;28;19928;-35
2023/06/14 11:13:35;;;;;;;;;;;27.10;69.90;;;;;;5039579;28;20002;-35
2023/06/14 11:16:12;;;;;;;;;;;27.10;69.20;;;;;;5030707;28;19936;-34
2023/06/14 11:18:40;;;;;;;;;;;27.10;69.60;;;;;;5044351;28;19925;-35
2023/06/14 11:21:08;;;;;;;;;;;27.10;69.50;;;;;;5043041;28;20348;-35
2023/06/14 11:23:35;;;;;;;;;;;27.20;69.50;;;;;;5061308;28;20039;-35
2023/06/14 11:26:10;;;;;;;;;;;27.20;69.70;;;;;;5062381;28;19924;-35
2023/06/14 11:28:38;;;;;;;;;;;27.20;68.80;;;;;;5058265;28;19932;-34
2023/06/14 11:31:07;;;;;;;;;;;27.20;69.00;;;;;;5058288;28;19979;-36
2023/06/14 11:33:35;;;;;;;;;;;27.20;69.30;;;;;;5095527;28;19932;-35
2023/06/14 11:36:03;;;;;;;;;;;27.30;69.30;;;;;;5064594;28;19928;-34
2023/06/14 11:38:32;;;;;;;;;;;27.30;68.70;;;;;;5057428;28;19950;-34
2023/06/14 11:41:02;;;;;;;;;;;27.30;69.00;;;;;;5075380;28;19924;-35
2023/06/14 11:43:35;;;;;;;;;;;27.40;69.70;;;;;;5063287;28;19950;-34
2023/06/14 11:46:02;;;;;;;;;;;27.40;69.80;;;;;;5058803;28;20408;-35
2023/06/14 11:48:41;;;;;;;;;;;27.50;68.60;;;;;;5057151;28;20080;-35
2023/06/14 11:51:08;;;;;;;;;;;27.50;69.40;;;;;;5058978;28;19928;-34
2023/06/14 11:53:39;;;;;;;;;;;27.60;69.60;;;;;;5092743;28;19931;-34
2023/06/14 11:56:06;;;;;;;;;;;27.60;68.90;;;;;;5041467;28;20028;-34
2023/06/14 11:58:35;;;;;;;;;;;27.60;68.40;;;;;;5058868;28;19924;-35
2023/06/14 12:01:05;;;;;;;;;;;27.60;68.10;;;;;;5058391;28;19960;-34
2023/06/14 12:03:32;;;;;;;;;;;27.60;68.00;;;;;;5057490;28;19924;-35
2023/06/14 12:06:09;;;;;;;;;;;27.60;68.60;;;;;;5061683;28;19970;-35
2023/06/14 12:08:42;;;;;;;;;;;27.60;68.20;;;;;;5059363;28;20122;-35
2023/06/14 12:11:13;;;;;;;;;;;27.60;68.10;;;;;;5090898;28;19965;-35
2023/06/14 12:13:43;;;;;;;;;;;27.60;68.70;;;;;;5061051;28;19935;-35
2023/06/14 12:16:11;;;;;;;;;;;27.70;68.00;;;;;;5062784;28;20347;-35
2023/06/14 12:18:43;;;;;;;;;;;27.80;68.70;;;;;;5059424;28;20369;-34
2023/06/14 12:21:11;;;;;;;;;;;27.80;68.30;;;;;;5061056;28;19925;-35
2023/06/14 12:23:39;;;;;;;;;;;27.90;68.40;;;;;;5059645;28;19929;-35
2023/06/14 12:26:08;;;;;;;;;;;27.90;68.80;;;;;;5059100;28;19924;-35
2023/06/14 12:28:41;;;;;;;;;;;28.00;69.30;;;;;;5060581;28;20559;-35
2023/06/14 12:31:09;;;;;;;;;;;28.00;68.00;;;;;;5058420;28;20387;-35
2023/06/14 12:33:36;;;;;;;;;;;28.10;67.80;;;;;;5057947;28;19947;-35
2023/06/14 12:36:06;;;;;;;;;;;28.10;68.20;;;;;;5059411;28;20294;-35
2023/06/14 12:38:34;;;;;;;;;;;28.10;67.50;;;;;;5061172;28;19951;-35
2023/06/14 12:41:04;;;;;;;;;;;28.10;68.30;;;;;;5059408;28;19928;-35
2023/06/14 12:43:34;;;;;;;;;;;28.20;67.20;;;;;;5057256;28;19939;-35
2023/06/14 12:46:06;;;;;;;;;;;28.10;65.60;;;;;;5058725;28;20352;-35
2023/06/14 12:48:36;;;;;;;;;;;28.10;66.50;;;;;;5061672;28;20386;-35
2023/06/14 12:51:03;;;;;;;;;;;28.20;65.90;;;;;;5055250;28;20015;-35
2023/06/14 12:53:32;;;;;;;;;;;28.10;66.30;;;;;;5041485;28;19925;-36
2023/06/14 12:56:02;;;;;;;;;;;28.10;66.20;;;;;;5055588;28;20468;-36
2023/06/14 12:58:29;;;;;;;;;;;28.20;66.60;;;;;;5057882;28;20337;-37
2023/06/14 13:00:57;;;;;;;;;;;28.20;67.00;;;;;;5074295;28;20262;-37
2023/06/14 13:03:24;;;;;;;4.07;2.40;;;28.20;66.60;;;;;;5051171;28;20337;-36
2023/06/14 13:05:54;;;;;;;6.53;2.47;;;28.30;67.00;;;;;;5053587;28;20452;-36
2023/06/14 13:08:22;;;;;;;4.47;2.10;;;28.50;65.90;;;;;;5063778;28;20199;-37
2023/06/14 13:11:01;;;;;;;8.65;2.90;;;28.60;65.70;;;;;;5050941;28;20215;-37
2023/06/14 13:13:33;;;;;;;3.53;2.22;;;28.60;65.50;;;;;;5060221;28;20219;-35
2023/06/14 13:16:05;;;;;;;3.53;1.85;;;28.60;65.60;;;;;;5059360;28;20199;-36